Time;durP1;ratioP1;P1;durP2;ratioP2;P2;SDS_P1;SDS_P2;PMS_P1;PMS_P2;Temp;Humidity;BMP_temperature;BMP_pressure;BME280_temperature;BME280_humidity;BME280_pressure;Samples;Min_cycle;Max_cycle;Signal;HPM_P1;HPM_P2
2023/09/28 14:22:44;;;;;;;8.18;2.00;;;21.40;1.00;;;;;;6288802;28;20891;-76
2023/09/28 14:25:46;;;;;;;18.83;2.45;;;21.50;1.00;;;;;;6314054;28;20059;-75
2023/09/28 14:28:47;;;;;;;7.22;1.63;;;21.20;1.00;;;;;;6297717;28;20424;-75
2023/09/28 14:31:49;;;;;;;10.52;1.67;;;21.30;1.00;;;;;;6289485;28;20052;-76
2023/09/28 14:34:51;;;;;;;9.77;2.33;;;21.10;1.00;;;;;;6312868;28;20637;-76
2023/09/28 14:37:52;;;;;;;9.02;1.60;;;20.90;1.00;;;;;;6289244;28;20045;-76
2023/09/28 14:40:54;;;;;;;8.60;2.10;;;20.90;1.00;;;;;;6288920;28;20504;-75
2023/09/28 14:43:56;;;;;;;10.88;2.13;;;20.60;1.00;;;;;;6290799;28;20044;-74
2023/09/28 14:46:58;;;;;;;9.43;1.70;;;20.60;1.00;;;;;;6288187;28;20071;-76
2023/09/28 14:50:02;;;;;;;10.10;1.45;;;20.40;1.00;;;;;;6313637;28;20131;-76
2023/09/28 14:53:08;;;;;;;8.20;1.80;;;20.10;1.00;;;;;;6313847;28;20052;-77
2023/09/28 14:56:13;;;;;;;11.15;1.70;;;19.70;1.00;;;;;;6267794;28;20056;-76
2023/09/28 14:59:15;;;;;;;9.43;1.70;;;19.70;1.00;;;;;;6304860;28;20075;-75
2023/09/28 15:02:17;;;;;;;8.20;1.63;;;19.60;1.00;;;;;;6288904;28;20048;-76
2023/09/28 15:05:19;;;;;;;9.50;1.83;;;19.50;1.00;;;;;;6288920;28;20060;-74
2023/09/28 15:08:21;;;;;;;12.02;1.90;;;19.50;1.00;;;;;;6284129;28;20065;-75
2023/09/28 15:11:23;;;;;;;7.35;1.42;;;19.60;1.00;;;;;;6313068;28;20094;-76
2023/09/28 15:14:25;;;;;;;12.15;2.10;;;19.80;1.00;;;;;;6285420;28;20488;-76
2023/09/28 15:17:27;;;;;;;8.85;1.75;;;19.70;1.00;;;;;;6311777;28;20047;-76
2023/09/28 15:20:28;;;;;;;9.13;1.92;;;19.70;1.00;;;;;;6286558;28;20059;-76
2023/09/28 15:23:30;;;;;;;7.60;1.23;;;19.70;1.00;;;;;;6288707;28;20080;-76
2023/09/28 15:26:32;;;;;;;12.98;1.77;;;19.70;1.00;;;;;;6312543;28;20048;-75
2023/09/28 15:29:33;;;;;;;7.60;1.52;;;19.80;1.00;;;;;;6284480;28;20056;-79
2023/09/28 15:32:35;;;;;;;8.93;1.60;;;19.70;1.00;;;;;;6303583;28;20072;-79
2023/09/28 15:35:37;;;;;;;11.88;1.90;;;19.60;1.00;;;;;;6270392;28;20113;-79
2023/09/28 15:38:39;;;;;;;8.60;1.48;;;19.60;1.00;;;;;;6294833;28;20507;-76
2023/09/28 15:41:43;;;;;;;9.77;2.15;;;19.50;1.00;;;;;;6271580;28;20062;-77
2023/09/28 15:44:45;;;;;;;10.70;1.60;;;19.50;1.00;;;;;;6292891;28;20149;-78
2023/09/28 15:47:47;;;;;;;9.65;1.90;;;19.40;1.00;;;;;;6271524;28;20060;-77
2023/09/28 15:50:48;;;;;;;10.30;1.70;;;19.40;1.00;;;;;;6293867;28;20518;-79
2023/09/28 15:53:50;;;;;;;15.90;2.45;;;19.30;1.00;;;;;;6271916;28;20063;-78
2023/09/28 15:56:52;;;;;;;14.95;2.38;;;19.20;1.00;;;;;;6295234;28;20189;-77
2023/09/28 15:59:53;;;;;;;10.07;1.60;;;18.90;1.00;;;;;;6263704;28;20068;-76
2023/09/28 16:02:55;;;;;;;12.88;2.20;;;18.80;1.00;;;;;;6294275;28;20438;-76
2023/09/28 16:05:57;;;;;;;9.65;1.85;;;18.80;1.00;;;;;;6271304;28;20045;-76
2023/09/28 16:08:59;;;;;;;9.88;2.65;;;18.80;1.00;;;;;;6295018;28;20063;-76
2023/09/28 16:12:01;;;;;;;14.85;2.35;;;18.90;1.00;;;;;;6271243;28;20053;-76
2023/09/28 16:15:04;;;;;;;13.82;2.30;;;18.90;1.00;;;;;;6291575;28;20397;-76
2023/09/28 16:18:05;;;;;;;13.45;2.15;;;17.30;1.00;;;;;;6270887;28;20186;-76
2023/09/28 16:21:07;;;;;;;11.68;1.70;;;18.80;1.00;;;;;;6282785;28;20056;-76
2023/09/28 16:24:09;;;;;;;16.20;2.35;;;18.20;1.00;;;;;;6294702;28;20053;-76
2023/09/28 16:27:11;;;;;;;16.20;2.60;;;18.70;1.00;;;;;;6269933;28;20049;-77
2023/09/28 16:30:13;;;;;;;18.45;2.20;;;18.80;1.00;;;;;;6291011;28;20056;-76
2023/09/28 16:33:14;;;;;;;10.70;2.33;;;18.90;1.00;;;;;;6243859;28;20442;-76
2023/09/28 16:36:16;;;;;;;16.13;3.22;;;19.00;1.00;;;;;;6294633;28;20090;-76
2023/09/28 16:39:18;;;;;;;13.25;2.20;;;20.00;1.00;;;;;;6270368;28;20059;-76
2023/09/28 16:42:20;;;;;;;15.15;2.92;;;19.10;1.00;;;;;;6292496;28;20057;-76
2023/09/28 16:45:23;;;;;;;11.57;2.28;;;19.00;1.00;;;;;;6267204;28;20045;-76
2023/09/28 16:48:25;;;;;;;9.65;2.00;;;18.80;1.00;;;;;;6244528;28;20068;-75
2023/09/28 16:51:27;;;;;;;14.70;2.10;;;18.70;1.00;;;;;;6293335;28;20117;-76
2023/09/28 16:54:29;;;;;;;23.65;2.78;;;18.60;1.00;;;;;;6269929;28;20049;-76
2023/09/28 16:57:30;;;;;;;14.93;2.08;;;18.50;1.00;;;;;;6288651;28;20377;-76
2023/09/28 17:00:32;;;;;;;14.75;2.53;;;18.30;1.00;;;;;;6265500;28;20087;-76
2023/09/28 17:03:34;;;;;;;11.40;1.77;;;18.30;1.00;;;;;;6292855;28;20060;-76
2023/09/28 17:06:37;;;;;;;17.42;2.60;;;18.20;1.00;;;;;;6268903;28;20057;-75
2023/09/28 17:09:38;;;;;;;14.25;2.03;;;18.20;1.00;;;;;;6292922;28;20052;-76
2023/09/28 17:12:41;;;;;;;16.08;2.58;;;18.10;1.00;;;;;;6271042;28;20054;-76
2023/09/28 17:15:48;;;;;;;14.68;3.08;;;18.00;1.00;;;;;;6293150;28;20056;-76
2023/09/28 17:18:50;;;;;;;12.90;1.83;;;17.90;1.00;;;;;;6243938;28;20061;-76
2023/09/28 17:21:51;;;;;;;12.82;2.58;;;17.90;1.00;;;;;;6292126;28;20520;-76
2023/09/28 17:24:53;;;;;;;14.25;2.13;;;17.90;1.00;;;;;;6269615;28;20048;-76
2023/09/28 17:27:55;;;;;;;13.85;1.88;;;17.90;1.00;;;;;;6286550;28;20061;-77
2023/09/28 17:30:56;;;;;;;13.95;2.55;;;17.80;1.00;;;;;;6268707;28;20049;-75
2023/09/28 17:33:58;;;;;;;17.02;2.00;;;17.80;1.00;;;;;;6292819;28;20492;-76
2023/09/28 17:36:59;;;;;;;16.33;2.30;;;17.80;1.00;;;;;;6269190;28;20139;-76
2023/09/28 17:40:03;;;;;;;17.02;3.53;;;17.80;1.00;;;;;;6292839;28;20461;-75
2023/09/28 17:43:05;;;;;;;16.67;2.85;;;17.80;1.00;;;;;;6269706;28;20060;-76
2023/09/28 17:46:07;;;;;;;15.07;1.98;;;17.80;1.00;;;;;;6293235;28;20656;-74
2023/09/28 17:49:08;;;;;;;14.18;2.47;;;17.80;1.00;;;;;;6261906;28;20137;-79
2023/09/28 17:52:10;;;;;;;15.73;2.00;;;17.80;1.00;;;;;;6265290;28;20049;-75
2023/09/28 17:55:12;;;;;;;10.88;2.10;;;17.80;1.00;;;;;;6259362;28;20049;-79
2023/09/28 17:58:17;;;;;;;11.25;2.03;;;17.80;1.00;;;;;;6262687;28;20052;-76
2023/09/28 18:01:18;;;;;;;14.30;2.40;;;17.80;1.00;;;;;;6269363;28;20063;-77
2023/09/28 18:04:20;;;;;;;12.82;2.20;;;17.80;1.00;;;;;;6274063;28;20535;-77
2023/09/28 18:07:22;;;;;;;15.73;2.50;;;17.80;1.00;;;;;;6275838;28;20389;-76
2023/09/28 18:10:23;;;;;;;10.70;1.75;;;17.70;1.00;;;;;;6282949;28;20761;-77
2023/09/28 18:13:25;;;;;;;13.68;2.15;;;17.70;1.00;;;;;;6273876;28;20079;-77
2023/09/28 18:16:27;;;;;;;11.50;2.13;;;17.70;1.00;;;;;;6275197;28;20075;-76
2023/09/28 18:19:29;;;;;;;13.35;2.15;;;17.60;1.00;;;;;;6271737;28;20500;-77
2023/09/28 18:22:30;;;;;;;11.05;2.33;;;17.60;1.00;;;;;;6278772;28;20068;-78
2023/09/28 18:25:32;;;;;;;10.60;2.28;;;17.60;1.00;;;;;;6275637;28;20531;-77
2023/09/28 18:28:36;;;;;;;16.48;2.42;;;17.60;1.00;;;;;;6268436;28;20049;-78
2023/09/28 18:31:38;;;;;;;13.48;2.28;;;17.60;1.00;;;;;;6267209;28;20090;-79
2023/09/28 18:34:41;;;;;;;17.45;2.38;;;17.40;1.00;;;;;;6288190;28;20060;-79
2023/09/28 18:37:43;;;;;;;12.98;2.30;;;17.20;4.20;;;;;;6268763;28;20082;-79
2023/09/28 18:40:45;;;;;;;12.32;2.67;;;17.00;10.50;;;;;;6265600;28;20053;-78
2023/09/28 18:43:47;;;;;;;14.02;2.67;;;16.80;18.10;;;;;;6269050;28;20049;-77
2023/09/28 18:46:49;;;;;;;15.13;2.10;;;16.80;22.40;;;;;;6257037;28;20045;-78
2023/09/28 18:49:51;;;;;;;10.70;1.70;;;16.60;30.50;;;;;;6287060;28;20136;-80
2023/09/28 18:52:53;;;;;;;7.25;2.10;;;16.40;37.60;;;;;;6269524;28;20080;-80
2023/09/28 18:55:55;;;;;;;15.75;2.58;;;16.20;45.20;;;;;;6273708;28;20053;-80
2023/09/28 18:58:57;;;;;;;17.80;2.53;;;16.10;50.50;;;;;;6264879;28;20607;-79
2023/09/28 19:01:59;;;;;;;7.30;1.60;;;16.10;51.40;;;;;;6272113;28;20144;-80
2023/09/28 19:05:01;;;;;;;7.47;1.98;;;16.10;52.80;;;;;;6289382;28;20064;-82
2023/09/28 19:11:41;;;;;;;9.93;1.98;;;16.10;56.80;;;;;;6247516;28;20595;-81
2023/09/28 19:32:57;;;;;;;7.95;1.80;;;16.30;57.00;;;;;;6246933;28;20498;-77
2023/09/28 19:35:59;;;;;;;10.95;2.10;;;16.40;55.90;;;;;;6295576;28;20051;-77
2023/09/28 19:39:00;;;;;;;11.75;2.70;;;16.40;56.00;;;;;;6271612;28;20142;-78
2023/09/28 19:42:02;;;;;;;14.00;2.15;;;16.40;54.60;;;;;;6295624;28;20052;-77
2023/09/28 19:45:04;;;;;;;8.40;2.47;;;16.40;54.60;;;;;;6271555;28;20091;-76
2023/09/28 19:48:05;;;;;;;10.90;2.03;;;16.50;54.60;;;;;;6288842;28;20048;-77
2023/09/28 19:51:08;;;;;;;16.75;2.25;;;16.50;54.50;;;;;;6271424;28;20183;-79
2023/09/28 19:54:10;;;;;;;16.95;2.30;;;16.40;54.20;;;;;;6295134;28;20129;-75
2023/09/28 19:57:11;;;;;;;11.23;2.00;;;16.50;55.20;;;;;;6277645;28;20053;-75
2023/09/28 20:00:14;;;;;;;14.32;2.30;;;16.50;54.60;;;;;;6271097;28;20060;-75
2023/09/28 20:03:15;;;;;;;14.18;2.55;;;16.50;55.00;;;;;;6295262;28;20056;-75
2023/09/28 20:06:17;;;;;;;10.10;2.10;;;16.60;53.80;;;;;;6270693;28;20110;-75
2023/09/28 20:09:20;;;;;;;13.75;2.92;;;16.50;54.30;;;;;;6293865;28;20055;-75
2023/09/28 20:23:18;;;;;;;13.70;2.25;;;16.60;57.30;;;;;;6253555;28;20488;-78
2023/09/28 20:37:19;;;;;;;12.52;2.20;;;16.80;56.70;;;;;;6294801;28;20068;-78
2023/09/28 20:47:51;;;;;;;14.57;2.42;;;16.90;56.90;;;;;;6245275;28;20076;-77
2023/09/28 20:50:54;;;;;;;17.73;3.15;;;17.00;56.10;;;;;;6291981;28;20052;-78
2023/09/28 21:04:56;;;;;;;10.93;2.35;;;17.20;58.00;;;;;;6245050;28;20071;-77
2023/09/28 21:07:58;;;;;;;20.77;2.58;;;17.30;58.10;;;;;;6293289;28;20496;-78
2023/09/28 21:22:01;;;;;;;9.38;1.85;;;17.70;60.00;;;;;;6244535;28;20485;-76
2023/09/28 21:25:03;;;;;;;12.18;3.05;;;17.80;60.90;;;;;;6292769;28;20060;-79
2023/09/28 21:28:04;;;;;;;12.45;2.22;;;17.90;59.50;;;;;;6275983;28;20049;-77
2023/09/28 21:31:06;;;;;;;9.48;1.92;;;18.00;61.00;;;;;;6293505;28;20079;-78
2023/09/28 21:34:08;;;;;;;10.18;1.90;;;18.00;62.60;;;;;;6269388;28;20602;-77
2023/09/28 21:37:09;;;;;;;10.73;2.38;;;18.20;62.40;;;;;;6292841;28;20048;-77
2023/09/28 21:47:33;;;;;;;7.40;1.67;;;18.30;66.20;;;;;;6244158;28;20045;-77
2023/09/28 21:50:35;;;;;;;7.75;1.60;;;18.30;66.90;;;;;;6292482;28;20044;-78
2023/09/28 21:53:36;;;;;;;8.40;1.83;;;18.40;67.00;;;;;;6267406;28;20135;-77
2023/09/28 22:03:54;;;;;;;7.45;1.80;;;18.60;66.30;;;;;;6243915;28;20058;-77
2023/09/28 22:07:10;;;;;;;7.68;1.80;;;18.70;65.40;;;;;;6191499;28;20066;-77
2023/09/28 22:13:47;;;;;;;7.63;2.10;;;18.80;65.40;;;;;;6216040;28;20188;-78
2023/09/28 22:16:49;;;;;;;13.40;2.92;;;18.90;63.00;;;;;;6216026;28;20098;-78
2023/09/28 22:20:12;;;;;;;7.90;1.98;;;19.00;62.20;;;;;;6143245;29;20055;-78
2023/09/28 22:23:14;;;;;;;8.73;1.65;;;19.10;61.10;;;;;;6162704;28;20431;-78
2023/09/28 22:29:56;;;;;;;11.20;2.60;;;19.30;60.30;;;;;;6117998;28;20535;-77
2023/09/28 22:32:57;;;;;;;9.68;1.90;;;19.30;60.00;;;;;;6214597;28;20061;-78
2023/09/28 22:35:59;;;;;;;9.93;2.17;;;19.30;60.30;;;;;;6191331;28;20051;-77
2023/09/28 22:42:53;;;;;;;9.20;2.00;;;19.40;57.10;;;;;;6226533;28;20041;-79
2023/09/28 22:49:33;;;;;;;12.85;2.30;;;19.40;55.80;;;;;;6220270;28;20042;-76
2023/09/28 22:52:35;;;;;;;9.95;2.58;;;19.30;60.10;;;;;;6244106;28;20057;-78
2023/09/28 22:55:37;;;;;;;11.75;2.00;;;19.20;58.30;;;;;;6219075;28;20050;-77
2023/09/28 22:58:38;;;;;;;10.23;2.17;;;19.10;60.10;;;;;;6225480;28;20061;-76
2023/09/28 23:01:40;;;;;;;8.30;1.92;;;19.00;60.00;;;;;;6244135;28;20064;-76
2023/09/28 23:04:41;;;;;;;9.75;2.72;;;19.00;60.20;;;;;;6220286;28;20054;-77
2023/09/28 23:07:43;;;;;;;9.35;2.05;;;18.90;60.00;;;;;;6243675;28;20701;-75
2023/09/28 23:10:45;;;;;;;7.68;2.17;;;18.90;60.00;;;;;;6262724;28;20049;-77
2023/09/28 23:13:46;;;;;;;7.40;1.98;;;18.90;60.00;;;;;;6275899;28;20776;-77
2023/09/28 23:16:48;;;;;;;11.02;1.90;;;19.00;60.10;;;;;;6296477;28;20052;-76
2023/09/28 23:19:50;;;;;;;11.85;2.13;;;19.00;59.40;;;;;;6272282;28;20060;-76
2023/09/28 23:22:52;;;;;;;7.20;2.00;;;19.00;59.40;;;;;;6295709;28;20056;-76
2023/09/28 23:25:54;;;;;;;8.65;1.95;;;19.00;58.40;;;;;;6272408;28;20049;-76
2023/09/28 23:28:55;;;;;;;7.53;1.77;;;19.10;57.40;;;;;;6279922;28;20672;-75
2023/09/28 23:32:00;;;;;;;10.13;2.13;;;19.10;57.30;;;;;;6296366;28;20063;-76
2023/09/28 23:35:04;;;;;;;8.70;1.80;;;19.10;57.10;;;;;;6247130;28;20071;-76
2023/09/28 23:38:10;;;;;;;9.68;1.90;;;19.20;57.60;;;;;;6295878;28;20052;-76
2023/09/28 23:41:12;;;;;;;11.93;2.00;;;19.20;57.50;;;;;;6247098;28;20053;-76
2023/09/28 23:44:14;;;;;;;12.13;2.28;;;19.20;56.70;;;;;;6292989;28;20059;-77
2023/09/28 23:47:16;;;;;;;9.95;1.77;;;19.20;57.50;;;;;;6271718;28;20087;-76
2023/09/28 23:50:17;;;;;;;9.00;2.45;;;19.30;57.40;;;;;;6295529;28;20056;-77
2023/09/28 23:53:19;;;;;;;10.05;2.10;;;19.30;57.80;;;;;;6271604;28;20111;-77
2023/09/28 23:56:21;;;;;;;8.38;2.20;;;19.30;58.20;;;;;;6270592;28;20056;-77
2023/09/28 23:59:22;;;;;;;12.35;2.08;;;19.30;60.00;;;;;;6292316;28;20071;-78
